createdAt,value
2023-03-29T00:04:38.483Z,8.5
2023-03-29T00:14:38.430Z,8
2023-03-29T00:24:38.435Z,8.1
2023-03-29T00:34:38.409Z,8.2
2023-03-29T00:44:38.393Z,8.4
2023-03-29T00:54:38.371Z,8.4
2023-03-29T01:04:38.409Z,8.2
2023-03-29T01:14:38.336Z,8.2
2023-03-29T01:24:38.335Z,8
2023-03-29T01:34:38.304Z,8
2023-03-29T01:44:38.302Z,8.2
2023-03-29T01:54:38.280Z,8.2
2023-03-29T02:04:38.270Z,8.3
2023-03-29T02:14:38.268Z,8.2
2023-03-29T02:24:38.248Z,8.2
2023-03-29T02:34:38.229Z,8.2
2023-03-29T02:44:38.226Z,8
2023-03-29T02:54:38.211Z,8.1
2023-03-29T03:04:38.177Z,8.1
2023-03-29T03:14:38.167Z,8.2
2023-03-29T03:24:38.131Z,8.2
2023-03-29T03:34:38.129Z,8.3
2023-03-29T03:44:38.104Z,8.4
2023-03-29T03:54:38.128Z,8.5
2023-03-29T04:04:38.072Z,8.5
2023-03-29T04:14:38.069Z,8.4
2023-03-29T04:24:38.086Z,8.3
2023-03-29T04:34:38.027Z,8.2
2023-03-29T04:44:38.072Z,8
2023-03-29T04:54:38.001Z,8
2023-03-29T05:04:38.050Z,7.7
2023-03-29T05:14:38.020Z,7.4
2023-03-29T05:24:38.220Z,7.5
2023-03-29T05:34:37.941Z,7.6
2023-03-29T05:44:37.932Z,7.6
2023-03-29T05:54:37.914Z,7.6
2023-03-29T06:14:37.899Z,8.1
2023-03-29T06:34:38.647Z,8.4
2023-03-29T06:44:37.866Z,8.6
2023-03-29T06:54:37.828Z,8.7
2023-03-29T07:04:37.838Z,8.8
2023-03-29T07:14:37.820Z,9.1
2023-03-29T07:24:37.796Z,9.7
2023-03-29T07:34:37.788Z,10.4
2023-03-29T07:44:37.761Z,10.9
2023-03-29T07:54:37.730Z,11.4
2023-03-29T08:04:37.827Z,11.8
2023-03-29T08:14:37.727Z,12.1
2023-03-29T08:24:37.688Z,12.4
2023-03-29T08:34:37.671Z,12.7
2023-03-29T08:44:37.697Z,13.1
2023-03-29T08:54:37.623Z,13.5
2023-03-29T09:04:37.663Z,13.8
2023-03-29T09:14:37.590Z,14.2
2023-03-29T09:24:37.582Z,15.2
2023-03-29T09:34:37.600Z,15.7
2023-03-29T09:44:37.546Z,16.5
2023-03-29T09:54:37.519Z,17.5
2023-03-29T10:04:37.576Z,17.9
2023-03-29T10:14:37.484Z,18.5
2023-03-29T10:24:37.449Z,18.3
2023-03-29T10:34:37.438Z,18.1
2023-03-29T10:44:37.436Z,18.9
2023-03-29T10:54:37.479Z,18.8
2023-03-29T11:04:37.387Z,18.7
2023-03-29T11:14:37.340Z,18.8
2023-03-29T11:24:37.366Z,19.4
2023-03-29T11:34:37.344Z,19.4
2023-03-29T11:44:37.427Z,19.9
2023-03-29T11:54:37.253Z,19.8
2023-03-29T12:04:37.265Z,20.8
2023-03-29T12:14:37.254Z,21.7
2023-03-29T12:24:37.191Z,22.4
2023-03-29T12:34:37.196Z,23.1
2023-03-29T12:44:37.418Z,23.5
2023-03-29T12:54:37.167Z,24.6
2023-03-29T13:04:37.138Z,25.3
2023-03-29T13:14:37.109Z,25.3
2023-03-29T13:24:37.083Z,25.4
2023-03-29T13:34:37.059Z,25.2
2023-03-29T13:44:37.040Z,25.5
2023-03-29T13:54:37.036Z,25.7
2023-03-29T14:04:36.994Z,25.6
2023-03-29T14:14:38.698Z,25.6
2023-03-29T14:24:36.961Z,25.3
2023-03-29T14:34:37.039Z,25.3
2023-03-29T14:44:36.921Z,25.5
2023-03-29T14:54:36.917Z,25
2023-03-29T15:04:36.891Z,24.2
2023-03-29T15:14:36.911Z,23.9
2023-03-29T15:24:36.842Z,23.7
2023-03-29T15:34:36.838Z,23.9
2023-03-29T15:44:36.805Z,23.7
2023-03-29T15:54:36.794Z,23.5
2023-03-29T16:04:36.748Z,23.4
2023-03-29T16:14:36.725Z,22.9
2023-03-29T16:24:36.732Z,22.5
2023-03-29T16:34:36.700Z,22.6
2023-03-29T16:44:36.683Z,22.3
2023-03-29T16:54:36.658Z,22.4
2023-03-29T17:04:36.658Z,22.5
2023-03-29T17:14:36.614Z,22.1
2023-03-29T17:24:36.567Z,21.3
2023-03-29T17:34:36.545Z,20.7
2023-03-29T17:44:36.550Z,20.2
2023-03-29T17:54:36.527Z,19.5
2023-03-29T18:04:36.532Z,18.9
2023-03-29T18:14:36.494Z,18.3
2023-03-29T18:24:36.464Z,17.8
2023-03-29T18:34:36.450Z,17.3
2023-03-29T18:44:36.462Z,16.9
2023-03-29T18:54:36.467Z,16.4
2023-03-29T19:04:36.403Z,16
2023-03-29T19:14:36.476Z,15.7
2023-03-29T19:24:36.374Z,15.4
2023-03-29T19:34:36.338Z,15.1
2023-03-29T19:44:36.314Z,14.8
2023-03-29T19:54:36.287Z,14.6
2023-03-29T20:04:36.333Z,14.4
2023-03-29T20:14:36.237Z,14.2
2023-03-29T20:24:36.239Z,14
2023-03-29T20:34:36.210Z,13.7
2023-03-29T20:44:36.213Z,13.5
2023-03-29T20:54:36.166Z,13.2
2023-03-29T21:04:36.174Z,13
2023-03-29T21:14:36.187Z,12.7
2023-03-29T21:24:36.147Z,12.6
2023-03-29T21:34:36.216Z,12.6
2023-03-29T21:44:36.085Z,12.5
2023-03-29T21:54:36.099Z,12.4
2023-03-29T22:04:37.426Z,12.4
2023-03-29T22:14:36.037Z,12.4
2023-03-29T22:24:36.032Z,12.4
2023-03-29T22:34:36.028Z,12.3
2023-03-29T22:44:35.994Z,12.1
2023-03-29T22:54:35.946Z,12
2023-03-29T23:04:35.952Z,12
2023-03-29T23:14:35.929Z,12.1
2023-03-29T23:24:35.901Z,12.3
2023-03-29T23:34:35.873Z,12.5
2023-03-29T23:44:35.858Z,12.5
2023-03-29T23:54:35.877Z,12.4
